sensor_id;sensor_type;location;lat;lon;timestamp;P1;durP1;ratioP1;P2;durP2;ratioP2
44110;SDS011;29774;52.664;5.074;2024-01-10T00:01:31;7.93;;;5.90;;
44110;SDS011;29774;52.664;5.074;2024-01-10T00:03:56;7.53;;;5.10;;
44110;SDS011;29774;52.664;5.074;2024-01-10T00:06:22;7.30;;;5.43;;
44110;SDS011;29774;52.664;5.074;2024-01-10T00:08:48;6.40;;;5.18;;
44110;SDS011;29774;52.664;5.074;2024-01-10T00:11:14;8.50;;;5.80;;
44110;SDS011;29774;52.664;5.074;2024-01-10T00:13:40;15.30;;;5.53;;
44110;SDS011;29774;52.664;5.074;2024-01-10T00:16:05;6.97;;;5.70;;
44110;SDS011;29774;52.664;5.074;2024-01-10T00:18:31;7.65;;;5.22;;
44110;SDS011;29774;52.664;5.074;2024-01-10T00:20:57;7.07;;;5.22;;
44110;SDS011;29774;52.664;5.074;2024-01-10T00:23:23;7.28;;;5.53;;
44110;SDS011;29774;52.664;5.074;2024-01-10T00:25:49;8.07;;;6.13;;
44110;SDS011;29774;52.664;5.074;2024-01-10T00:28:14;8.93;;;5.97;;
44110;SDS011;29774;52.664;5.074;2024-01-10T00:30:43;7.85;;;6.03;;
44110;SDS011;29774;52.664;5.074;2024-01-10T00:33:10;8.30;;;5.43;;
44110;SDS011;29774;52.664;5.074;2024-01-10T00:35:36;9.18;;;6.43;;
44110;SDS011;29774;52.664;5.074;2024-01-10T00:38:02;8.60;;;5.68;;
44110;SDS011;29774;52.664;5.074;2024-01-10T00:40:28;6.25;;;5.22;;
44110;SDS011;29774;52.664;5.074;2024-01-10T00:42:53;9.27;;;5.70;;
44110;SDS011;29774;52.664;5.074;2024-01-10T00:45:19;9.27;;;6.68;;
44110;SDS011;29774;52.664;5.074;2024-01-10T00:47:45;8.57;;;6.28;;
44110;SDS011;29774;52.664;5.074;2024-01-10T00:50:11;11.75;;;7.00;;
44110;SDS011;29774;52.664;5.074;2024-01-10T00:52:36;9.85;;;6.30;;
44110;SDS011;29774;52.664;5.074;2024-01-10T00:55:02;9.35;;;6.20;;
44110;SDS011;29774;52.664;5.074;2024-01-10T00:57:28;9.02;;;6.38;;
44110;SDS011;29774;52.664;5.074;2024-01-10T00:59:53;13.40;;;7.22;;
44110;SDS011;29774;52.664;5.074;2024-01-10T01:02:19;9.70;;;6.55;;
44110;SDS011;29774;52.664;5.074;2024-01-10T01:04:44;11.10;;;6.80;;
44110;SDS011;29774;52.664;5.074;2024-01-10T01:07:10;8.88;;;6.25;;
44110;SDS011;29774;52.664;5.074;2024-01-10T01:09:36;7.18;;;5.50;;
44110;SDS011;29774;52.664;5.074;2024-01-10T01:12:01;8.00;;;5.57;;
44110;SDS011;29774;52.664;5.074;2024-01-10T01:14:27;6.85;;;5.50;;
44110;SDS011;29774;52.664;5.074;2024-01-10T01:16:53;6.97;;;5.57;;
44110;SDS011;29774;52.664;5.074;2024-01-10T01:19:18;7.72;;;5.55;;
44110;SDS011;29774;52.664;5.074;2024-01-10T01:21:44;6.88;;;5.00;;
44110;SDS011;29774;52.664;5.074;2024-01-10T01:24:10;7.45;;;5.30;;
44110;SDS011;29774;52.664;5.074;2024-01-10T01:26:36;6.88;;;5.43;;
44110;SDS011;29774;52.664;5.074;2024-01-10T01:29:02;7.78;;;5.45;;
44110;SDS011;29774;52.664;5.074;2024-01-10T01:31:27;7.47;;;4.90;;
44110;SDS011;29774;52.664;5.074;2024-01-10T01:33:53;7.90;;;5.55;;
44110;SDS011;29774;52.664;5.074;2024-01-10T01:36:18;7.28;;;4.78;;
44110;SDS011;29774;52.664;5.074;2024-01-10T01:38:44;6.68;;;5.35;;
44110;SDS011;29774;52.664;5.074;2024-01-10T01:41:10;8.90;;;5.57;;
44110;SDS011;29774;52.664;5.074;2024-01-10T01:43:36;7.68;;;5.60;;
44110;SDS011;29774;52.664;5.074;2024-01-10T01:46:01;6.05;;;4.57;;
44110;SDS011;29774;52.664;5.074;2024-01-10T01:48:28;8.35;;;5.68;;
44110;SDS011;29774;52.664;5.074;2024-01-10T01:50:56;7.28;;;5.68;;
44110;SDS011;29774;52.664;5.074;2024-01-10T01:53:23;5.65;;;4.43;;
44110;SDS011;29774;52.664;5.074;2024-01-10T01:55:49;6.22;;;5.10;;
44110;SDS011;29774;52.664;5.074;2024-01-10T01:58:15;6.55;;;5.28;;
44110;SDS011;29774;52.664;5.074;2024-01-10T02:00:42;7.57;;;5.18;;
44110;SDS011;29774;52.664;5.074;2024-01-10T02:03:09;6.57;;;5.18;;
44110;SDS011;29774;52.664;5.074;2024-01-10T02:05:35;6.38;;;4.78;;
44110;SDS011;29774;52.664;5.074;2024-01-10T02:08:01;6.35;;;5.28;;
44110;SDS011;29774;52.664;5.074;2024-01-10T02:10:27;7.05;;;5.03;;
44110;SDS011;29774;52.664;5.074;2024-01-10T02:12:53;9.27;;;5.53;;
44110;SDS011;29774;52.664;5.074;2024-01-10T02:15:19;5.43;;;4.63;;
44110;SDS011;29774;52.664;5.074;2024-01-10T02:17:45;5.97;;;4.57;;
44110;SDS011;29774;52.664;5.074;2024-01-10T02:20:14;7.13;;;4.82;;
44110;SDS011;29774;52.664;5.074;2024-01-10T02:22:45;6.40;;;4.80;;
44110;SDS011;29774;52.664;5.074;2024-01-10T02:25:12;7.90;;;5.18;;
44110;SDS011;29774;52.664;5.074;2024-01-10T02:27:38;7.32;;;4.95;;
44110;SDS011;29774;52.664;5.074;2024-01-10T02:30:05;7.50;;;4.80;;
44110;SDS011;29774;52.664;5.074;2024-01-10T02:32:32;6.25;;;4.43;;
44110;SDS011;29774;52.664;5.074;2024-01-10T02:34:58;6.10;;;4.70;;
44110;SDS011;29774;52.664;5.074;2024-01-10T02:37:24;7.00;;;4.80;;
44110;SDS011;29774;52.664;5.074;2024-01-10T02:39:50;7.85;;;5.05;;
44110;SDS011;29774;52.664;5.074;2024-01-10T02:42:16;6.78;;;4.90;;
44110;SDS011;29774;52.664;5.074;2024-01-10T02:44:41;6.70;;;5.13;;
44110;SDS011;29774;52.664;5.074;2024-01-10T02:47:07;7.65;;;4.78;;
44110;SDS011;29774;52.664;5.074;2024-01-10T02:49:34;6.75;;;4.53;;
44110;SDS011;29774;52.664;5.074;2024-01-10T02:51:59;6.13;;;4.47;;
44110;SDS011;29774;52.664;5.074;2024-01-10T02:54:25;6.63;;;4.43;;
44110;SDS011;29774;52.664;5.074;2024-01-10T02:56:51;7.00;;;4.88;;
44110;SDS011;29774;52.664;5.074;2024-01-10T02:59:16;7.07;;;4.68;;
44110;SDS011;29774;52.664;5.074;2024-01-10T03:01:42;6.80;;;4.78;;
44110;SDS011;29774;52.664;5.074;2024-01-10T03:04:08;7.30;;;4.90;;
44110;SDS011;29774;52.664;5.074;2024-01-10T03:06:34;6.28;;;4.75;;
44110;SDS011;29774;52.664;5.074;2024-01-10T03:09:00;6.60;;;4.90;;
44110;SDS011;29774;52.664;5.074;2024-01-10T03:11:25;6.68;;;4.70;;
44110;SDS011;29774;52.664;5.074;2024-01-10T03:14:00;5.45;;;3.92;;
44110;SDS011;29774;52.664;5.074;2024-01-10T03:16:27;5.97;;;4.50;;
44110;SDS011;29774;52.664;5.074;2024-01-10T03:18:53;5.32;;;4.30;;
44110;SDS011;29774;52.664;5.074;2024-01-10T03:21:18;5.82;;;4.40;;
44110;SDS011;29774;52.664;5.074;2024-01-10T03:23:56;6.18;;;4.85;;
44110;SDS011;29774;52.664;5.074;2024-01-10T03:26:23;6.55;;;4.68;;
44110;SDS011;29774;52.664;5.074;2024-01-10T03:28:49;5.22;;;4.13;;
44110;SDS011;29774;52.664;5.074;2024-01-10T03:31:15;4.50;;;4.05;;
44110;SDS011;29774;52.664;5.074;2024-01-10T03:33:41;5.45;;;4.30;;
44110;SDS011;29774;52.664;5.074;2024-01-10T03:36:10;4.70;;;4.20;;
44110;SDS011;29774;52.664;5.074;2024-01-10T03:38:40;5.13;;;3.60;;
44110;SDS011;29774;52.664;5.074;2024-01-10T03:41:06;5.68;;;4.63;;
44110;SDS011;29774;52.664;5.074;2024-01-10T03:43:31;5.68;;;3.90;;
44110;SDS011;29774;52.664;5.074;2024-01-10T03:45:57;4.70;;;4.03;;
44110;SDS011;29774;52.664;5.074;2024-01-10T03:48:23;5.43;;;4.03;;
44110;SDS011;29774;52.664;5.074;2024-01-10T03:50:49;5.90;;;4.00;;
44110;SDS011;29774;52.664;5.074;2024-01-10T03:53:15;6.85;;;4.38;;
44110;SDS011;29774;52.664;5.074;2024-01-10T03:55:41;4.53;;;3.60;;
44110;SDS011;29774;52.664;5.074;2024-01-10T03:58:06;5.15;;;3.35;;
44110;SDS011;29774;52.664;5.074;2024-01-10T04:00:32;5.47;;;4.25;;
44110;SDS011;29774;52.664;5.074;2024-01-10T04:02:58;5.05;;;4.22;;
44110;SDS011;29774;52.664;5.074;2024-01-10T04:05:23;4.72;;;4.07;;
44110;SDS011;29774;52.664;5.074;2024-01-10T04:07:50;5.40;;;3.95;;
44110;SDS011;29774;52.664;5.074;2024-01-10T04:10:17;5.00;;;3.75;;
44110;SDS011;29774;52.664;5.074;2024-01-10T04:12:43;7.93;;;4.60;;
44110;SDS011;29774;52.664;5.074;2024-01-10T04:15:10;8.45;;;6.15;;
44110;SDS011;29774;52.664;5.074;2024-01-10T04:17:36;5.63;;;4.47;;
44110;SDS011;29774;52.664;5.074;2024-01-10T04:20:02;8.02;;;5.05;;
44110;SDS011;29774;52.664;5.074;2024-01-10T04:22:29;7.50;;;5.90;;
44110;SDS011;29774;52.664;5.074;2024-01-10T04:24:56;8.38;;;5.80;;
44110;SDS011;29774;52.664;5.074;2024-01-10T04:27:22;8.52;;;6.10;;
44110;SDS011;29774;52.664;5.074;2024-01-10T04:29:48;10.13;;;6.32;;
44110;SDS011;29774;52.664;5.074;2024-01-10T04:32:14;8.18;;;5.82;;
44110;SDS011;29774;52.664;5.074;2024-01-10T04:34:39;8.30;;;6.25;;
44110;SDS011;29774;52.664;5.074;2024-01-10T04:37:05;9.45;;;6.05;;
44110;SDS011;29774;52.664;5.074;2024-01-10T04:39:32;9.25;;;5.70;;
44110;SDS011;29774;52.664;5.074;2024-01-10T04:41:59;7.55;;;5.57;;
44110;SDS011;29774;52.664;5.074;2024-01-10T04:44:24;6.53;;;5.72;;
44110;SDS011;29774;52.664;5.074;2024-01-10T04:46:50;9.20;;;6.63;;
44110;SDS011;29774;52.664;5.074;2024-01-10T04:49:16;9.38;;;6.05;;
44110;SDS011;29774;52.664;5.074;2024-01-10T04:51:41;7.38;;;5.28;;
44110;SDS011;29774;52.664;5.074;2024-01-10T04:54:08;9.50;;;6.22;;
44110;SDS011;29774;52.664;5.074;2024-01-10T04:56:34;10.15;;;6.40;;
44110;SDS011;29774;52.664;5.074;2024-01-10T04:59:01;8.20;;;6.63;;
44110;SDS011;29774;52.664;5.074;2024-01-10T05:01:27;8.25;;;6.13;;
44110;SDS011;29774;52.664;5.074;2024-01-10T05:03:53;8.45;;;6.30;;
44110;SDS011;29774;52.664;5.074;2024-01-10T05:06:18;8.00;;;6.00;;
44110;SDS011;29774;52.664;5.074;2024-01-10T05:08:44;8.85;;;6.35;;
44110;SDS011;29774;52.664;5.074;2024-01-10T05:11:10;7.88;;;5.68;;
44110;SDS011;29774;52.664;5.074;2024-01-10T05:13:36;8.18;;;6.35;;
44110;SDS011;29774;52.664;5.074;2024-01-10T05:16:02;9.18;;;6.68;;
44110;SDS011;29774;52.664;5.074;2024-01-10T05:18:28;8.23;;;6.50;;
44110;SDS011;29774;52.664;5.074;2024-01-10T05:20:53;8.73;;;6.57;;
44110;SDS011;29774;52.664;5.074;2024-01-10T05:23:19;9.75;;;7.28;;
44110;SDS011;29774;52.664;5.074;2024-01-10T05:25:45;9.73;;;7.53;;
44110;SDS011;29774;52.664;5.074;2024-01-10T05:28:11;9.13;;;6.82;;
44110;SDS011;29774;52.664;5.074;2024-01-10T05:30:37;7.90;;;6.53;;
44110;SDS011;29774;52.664;5.074;2024-01-10T05:33:03;9.43;;;6.65;;
44110;SDS011;29774;52.664;5.074;2024-01-10T05:35:28;9.07;;;5.90;;
44110;SDS011;29774;52.664;5.074;2024-01-10T05:37:54;8.25;;;5.47;;
44110;SDS011;29774;52.664;5.074;2024-01-10T05:40:20;7.70;;;5.43;;
44110;SDS011;29774;52.664;5.074;2024-01-10T05:42:46;6.60;;;5.15;;
44110;SDS011;29774;52.664;5.074;2024-01-10T05:45:11;5.93;;;4.65;;
44110;SDS011;29774;52.664;5.074;2024-01-10T05:47:37;6.55;;;4.93;;
44110;SDS011;29774;52.664;5.074;2024-01-10T05:50:03;7.07;;;4.78;;
44110;SDS011;29774;52.664;5.074;2024-01-10T05:52:32;5.93;;;4.72;;
44110;SDS011;29774;52.664;5.074;2024-01-10T05:54:58;6.55;;;4.40;;
44110;SDS011;29774;52.664;5.074;2024-01-10T05:57:26;6.30;;;4.80;;
44110;SDS011;29774;52.664;5.074;2024-01-10T05:59:52;5.75;;;4.28;;
44110;SDS011;29774;52.664;5.074;2024-01-10T06:02:21;6.03;;;4.35;;
44110;SDS011;29774;52.664;5.074;2024-01-10T06:04:47;7.75;;;5.35;;
44110;SDS011;29774;52.664;5.074;2024-01-10T06:07:13;7.18;;;5.20;;
44110;SDS011;29774;52.664;5.074;2024-01-10T06:09:39;6.95;;;4.70;;
44110;SDS011;29774;52.664;5.074;2024-01-10T06:12:05;6.28;;;4.72;;
44110;SDS011;29774;52.664;5.074;2024-01-10T06:14:31;6.82;;;5.00;;
44110;SDS011;29774;52.664;5.074;2024-01-10T06:16:57;6.60;;;4.43;;
44110;SDS011;29774;52.664;5.074;2024-01-10T06:19:24;5.82;;;4.57;;
44110;SDS011;29774;52.664;5.074;2024-01-10T06:21:50;7.10;;;5.20;;
44110;SDS011;29774;52.664;5.074;2024-01-10T06:24:17;6.75;;;4.60;;
44110;SDS011;29774;52.664;5.074;2024-01-10T06:26:43;6.00;;;4.50;;
44110;SDS011;29774;52.664;5.074;2024-01-10T06:29:08;6.63;;;5.22;;
44110;SDS011;29774;52.664;5.074;2024-01-10T06:31:34;8.23;;;4.90;;
44110;SDS011;29774;52.664;5.074;2024-01-10T06:33:59;5.70;;;4.63;;
44110;SDS011;29774;52.664;5.074;2024-01-10T06:36:25;6.75;;;4.85;;
44110;SDS011;29774;52.664;5.074;2024-01-10T06:38:51;6.75;;;4.82;;
44110;SDS011;29774;52.664;5.074;2024-01-10T06:41:16;6.20;;;4.32;;
44110;SDS011;29774;52.664;5.074;2024-01-10T06:43:42;6.60;;;5.30;;
44110;SDS011;29774;52.664;5.074;2024-01-10T06:46:09;8.13;;;4.95;;
44110;SDS011;29774;52.664;5.074;2024-01-10T06:48:35;5.80;;;4.13;;
44110;SDS011;29774;52.664;5.074;2024-01-10T06:51:01;6.25;;;4.43;;
44110;SDS011;29774;52.664;5.074;2024-01-10T06:53:27;7.95;;;5.15;;
44110;SDS011;29774;52.664;5.074;2024-01-10T06:55:52;5.72;;;4.47;;
44110;SDS011;29774;52.664;5.074;2024-01-10T06:58:18;6.90;;;5.00;;
44110;SDS011;29774;52.664;5.074;2024-01-10T07:00:43;4.93;;;4.10;;
44110;SDS011;29774;52.664;5.074;2024-01-10T07:03:09;8.35;;;4.80;;
44110;SDS011;29774;52.664;5.074;2024-01-10T07:05:34;6.40;;;4.47;;
44110;SDS011;29774;52.664;5.074;2024-01-10T07:08:01;7.18;;;5.25;;
44110;SDS011;29774;52.664;5.074;2024-01-10T07:10:28;8.90;;;5.65;;
44110;SDS011;29774;52.664;5.074;2024-01-10T07:12:54;4.97;;;4.00;;
44110;SDS011;29774;52.664;5.074;2024-01-10T07:15:20;7.30;;;4.90;;
44110;SDS011;29774;52.664;5.074;2024-01-10T07:17:46;6.28;;;5.20;;
44110;SDS011;29774;52.664;5.074;2024-01-10T07:20:12;6.97;;;4.75;;
44110;SDS011;29774;52.664;5.074;2024-01-10T07:22:38;7.55;;;5.13;;
44110;SDS011;29774;52.664;5.074;2024-01-10T07:25:06;5.55;;;4.80;;
44110;SDS011;29774;52.664;5.074;2024-01-10T07:27:33;5.80;;;4.20;;
44110;SDS011;29774;52.664;5.074;2024-01-10T07:29:59;7.90;;;5.13;;
44110;SDS011;29774;52.664;5.074;2024-01-10T07:32:24;7.38;;;5.32;;
44110;SDS011;29774;52.664;5.074;2024-01-10T07:34:50;6.57;;;4.85;;
44110;SDS011;29774;52.664;5.074;2024-01-10T07:37:16;6.82;;;4.70;;
44110;SDS011;29774;52.664;5.074;2024-01-10T07:39:45;8.15;;;5.35;;
44110;SDS011;29774;52.664;5.074;2024-01-10T07:42:11;7.05;;;5.65;;
44110;SDS011;29774;52.664;5.074;2024-01-10T07:44:37;6.55;;;5.10;;
44110;SDS011;29774;52.664;5.074;2024-01-10T07:47:03;7.13;;;4.88;;
44110;SDS011;29774;52.664;5.074;2024-01-10T07:49:28;7.53;;;5.50;;
44110;SDS011;29774;52.664;5.074;2024-01-10T07:51:55;5.88;;;5.00;;
44110;SDS011;29774;52.664;5.074;2024-01-10T07:54:20;8.38;;;5.50;;
44110;SDS011;29774;52.664;5.074;2024-01-10T07:56:46;7.30;;;5.20;;
44110;SDS011;29774;52.664;5.074;2024-01-10T07:59:11;6.55;;;5.28;;
44110;SDS011;29774;52.664;5.074;2024-01-10T08:01:40;8.18;;;5.70;;
44110;SDS011;29774;52.664;5.074;2024-01-10T08:04:10;7.28;;;4.97;;
44110;SDS011;29774;52.664;5.074;2024-01-10T08:06:35;9.48;;;5.05;;
44110;SDS011;29774;52.664;5.074;2024-01-10T08:09:01;7.07;;;4.53;;
44110;SDS011;29774;52.664;5.074;2024-01-10T08:11:29;6.38;;;5.28;;
44110;SDS011;29774;52.664;5.074;2024-01-10T08:13:55;7.82;;;5.50;;
44110;SDS011;29774;52.664;5.074;2024-01-10T08:16:20;6.93;;;5.03;;
44110;SDS011;29774;52.664;5.074;2024-01-10T08:18:46;7.50;;;5.50;;
44110;SDS011;29774;52.664;5.074;2024-01-10T08:21:11;6.75;;;4.78;;
44110;SDS011;29774;52.664;5.074;2024-01-10T08:23:37;8.82;;;5.80;;
44110;SDS011;29774;52.664;5.074;2024-01-10T08:26:06;6.93;;;5.38;;
44110;SDS011;29774;52.664;5.074;2024-01-10T08:28:33;8.20;;;5.60;;
44110;SDS011;29774;52.664;5.074;2024-01-10T08:30:58;8.02;;;5.68;;
44110;SDS011;29774;52.664;5.074;2024-01-10T08:33:24;7.45;;;5.30;;
44110;SDS011;29774;52.664;5.074;2024-01-10T08:35:50;5.65;;;4.63;;
44110;SDS011;29774;52.664;5.074;2024-01-10T08:38:15;6.50;;;4.97;;
44110;SDS011;29774;52.664;5.074;2024-01-10T08:40:41;5.75;;;4.72;;
44110;SDS011;29774;52.664;5.074;2024-01-10T08:43:07;6.45;;;5.15;;
44110;SDS011;29774;52.664;5.074;2024-01-10T08:45:32;5.70;;;3.95;;
44110;SDS011;29774;52.664;5.074;2024-01-10T08:47:58;7.20;;;5.20;;
44110;SDS011;29774;52.664;5.074;2024-01-10T08:50:24;6.13;;;5.13;;
44110;SDS011;29774;52.664;5.074;2024-01-10T08:52:50;7.03;;;4.85;;
44110;SDS011;29774;52.664;5.074;2024-01-10T08:55:15;6.68;;;4.78;;
44110;SDS011;29774;52.664;5.074;2024-01-10T08:57:41;6.90;;;5.13;;
44110;SDS011;29774;52.664;5.074;2024-01-10T09:00:07;6.47;;;4.80;;
44110;SDS011;29774;52.664;5.074;2024-01-10T09:02:36;5.90;;;4.05;;
44110;SDS011;29774;52.664;5.074;2024-01-10T09:05:03;7.18;;;4.90;;
44110;SDS011;29774;52.664;5.074;2024-01-10T09:07:29;6.43;;;4.63;;
44110;SDS011;29774;52.664;5.074;2024-01-10T09:09:55;8.85;;;5.40;;
44110;SDS011;29774;52.664;5.074;2024-01-10T09:12:21;6.95;;;5.05;;
44110;SDS011;29774;52.664;5.074;2024-01-10T09:14:48;7.03;;;4.70;;
44110;SDS011;29774;52.664;5.074;2024-01-10T09:17:13;6.85;;;4.93;;
44110;SDS011;29774;52.664;5.074;2024-01-10T09:19:39;7.70;;;5.70;;
44110;SDS011;29774;52.664;5.074;2024-01-10T09:22:04;6.75;;;5.05;;
44110;SDS011;29774;52.664;5.074;2024-01-10T09:24:30;6.10;;;4.78;;
44110;SDS011;29774;52.664;5.074;2024-01-10T09:26:55;7.65;;;5.60;;
44110;SDS011;29774;52.664;5.074;2024-01-10T09:29:21;7.25;;;5.05;;
44110;SDS011;29774;52.664;5.074;2024-01-10T09:31:48;6.43;;;5.10;;
44110;SDS011;29774;52.664;5.074;2024-01-10T09:34:13;6.68;;;4.70;;
44110;SDS011;29774;52.664;5.074;2024-01-10T09:36:39;6.43;;;4.97;;
44110;SDS011;29774;52.664;5.074;2024-01-10T09:39:05;7.25;;;4.90;;
44110;SDS011;29774;52.664;5.074;2024-01-10T09:41:36;7.50;;;4.43;;
44110;SDS011;29774;52.664;5.074;2024-01-10T09:44:09;6.72;;;5.00;;
44110;SDS011;29774;52.664;5.074;2024-01-10T09:46:36;7.22;;;5.13;;
44110;SDS011;29774;52.664;5.074;2024-01-10T09:49:05;5.28;;;4.25;;
44110;SDS011;29774;52.664;5.074;2024-01-10T09:51:32;5.78;;;4.28;;
44110;SDS011;29774;52.664;5.074;2024-01-10T09:53:58;6.38;;;5.03;;
44110;SDS011;29774;52.664;5.074;2024-01-10T09:56:28;7.30;;;5.25;;
44110;SDS011;29774;52.664;5.074;2024-01-10T09:58:54;7.25;;;4.25;;
44110;SDS011;29774;52.664;5.074;2024-01-10T10:01:23;6.57;;;5.40;;
44110;SDS011;29774;52.664;5.074;2024-01-10T10:03:49;7.18;;;4.95;;
44110;SDS011;29774;52.664;5.074;2024-01-10T10:06:35;7.05;;;5.07;;
44110;SDS011;29774;52.664;5.074;2024-01-10T10:09:00;7.15;;;4.88;;
44110;SDS011;29774;52.664;5.074;2024-01-10T10:11:26;7.30;;;5.15;;
44110;SDS011;29774;52.664;5.074;2024-01-10T10:13:51;6.05;;;5.07;;
44110;SDS011;29774;52.664;5.074;2024-01-10T10:16:24;7.00;;;5.22;;
44110;SDS011;29774;52.664;5.074;2024-01-10T10:18:53;7.07;;;4.82;;
44110;SDS011;29774;52.664;5.074;2024-01-10T10:21:23;6.00;;;4.90;;
44110;SDS011;29774;52.664;5.074;2024-01-10T10:24:02;5.60;;;4.38;;
44110;SDS011;29774;52.664;5.074;2024-01-10T10:26:32;5.85;;;4.50;;
44110;SDS011;29774;52.664;5.074;2024-01-10T10:28:59;5.97;;;4.63;;
44110;SDS011;29774;52.664;5.074;2024-01-10T10:31:24;7.10;;;4.80;;
44110;SDS011;29774;52.664;5.074;2024-01-10T10:33:51;7.38;;;4.45;;
44110;SDS011;29774;52.664;5.074;2024-01-10T10:36:18;7.20;;;5.35;;
44110;SDS011;29774;52.664;5.074;2024-01-10T10:38:46;5.75;;;4.93;;
44110;SDS011;29774;52.664;5.074;2024-01-10T10:41:15;6.43;;;4.97;;
44110;SDS011;29774;52.664;5.074;2024-01-10T10:43:43;6.35;;;4.68;;
44110;SDS011;29774;52.664;5.074;2024-01-10T10:46:09;6.82;;;5.47;;
44110;SDS011;29774;52.664;5.074;2024-01-10T10:48:37;6.13;;;4.53;;
44110;SDS011;29774;52.664;5.074;2024-01-10T10:51:04;6.47;;;4.70;;
44110;SDS011;29774;52.664;5.074;2024-01-10T10:53:34;4.88;;;4.15;;
44110;SDS011;29774;52.664;5.074;2024-01-10T10:56:02;7.70;;;4.80;;
44110;SDS011;29774;52.664;5.074;2024-01-10T10:58:31;7.43;;;5.35;;
44110;SDS011;29774;52.664;5.074;2024-01-10T11:01:03;6.97;;;5.25;;
44110;SDS011;29774;52.664;5.074;2024-01-10T11:03:35;6.95;;;4.80;;
44110;SDS011;29774;52.664;5.074;2024-01-10T11:06:02;6.45;;;4.25;;
44110;SDS011;29774;52.664;5.074;2024-01-10T11:08:34;5.50;;;4.35;;
44110;SDS011;29774;52.664;5.074;2024-01-10T11:11:11;8.32;;;5.43;;
44110;SDS011;29774;52.664;5.074;2024-01-10T11:25:15;7.10;;;5.28;;
44110;SDS011;29774;52.664;5.074;2024-01-10T11:27:43;5.15;;;4.25;;
44110;SDS011;29774;52.664;5.074;2024-01-10T11:30:09;8.52;;;5.18;;
44110;SDS011;29774;52.664;5.074;2024-01-10T11:32:36;6.05;;;4.47;;
44110;SDS011;29774;52.664;5.074;2024-01-10T11:35:05;6.80;;;4.18;;
44110;SDS011;29774;52.664;5.074;2024-01-10T11:37:44;7.50;;;5.53;;
44110;SDS011;29774;52.664;5.074;2024-01-10T11:40:11;8.88;;;5.78;;
44110;SDS011;29774;52.664;5.074;2024-01-10T11:42:41;6.40;;;4.88;;
44110;SDS011;29774;52.664;5.074;2024-01-10T11:45:07;6.55;;;5.07;;
44110;SDS011;29774;52.664;5.074;2024-01-10T11:47:33;8.15;;;5.50;;
44110;SDS011;29774;52.664;5.074;2024-01-10T11:49:59;9.00;;;5.30;;
44110;SDS011;29774;52.664;5.074;2024-01-10T11:52:33;9.10;;;5.63;;
44110;SDS011;29774;52.664;5.074;2024-01-10T11:55:01;6.88;;;5.68;;
44110;SDS011;29774;52.664;5.074;2024-01-10T11:57:28;7.90;;;5.88;;
44110;SDS011;29774;52.664;5.074;2024-01-10T11:59:57;7.05;;;5.25;;
44110;SDS011;29774;52.664;5.074;2024-01-10T12:02:25;6.75;;;5.60;;
44110;SDS011;29774;52.664;5.074;2024-01-10T12:04:52;6.82;;;5.90;;
44110;SDS011;29774;52.664;5.074;2024-01-10T12:07:19;9.30;;;5.82;;
44110;SDS011;29774;52.664;5.074;2024-01-10T12:09:45;6.40;;;5.45;;
44110;SDS011;29774;52.664;5.074;2024-01-10T12:12:14;8.40;;;6.43;;
44110;SDS011;29774;52.664;5.074;2024-01-10T12:14:40;8.52;;;5.65;;
44110;SDS011;29774;52.664;5.074;2024-01-10T12:17:08;9.55;;;6.10;;
44110;SDS011;29774;52.664;5.074;2024-01-10T12:19:34;9.82;;;6.28;;
44110;SDS011;29774;52.664;5.074;2024-01-10T12:22:02;8.27;;;6.53;;
44110;SDS011;29774;52.664;5.074;2024-01-10T12:24:28;7.85;;;5.70;;
44110;SDS011;29774;52.664;5.074;2024-01-10T12:26:55;10.38;;;6.10;;
44110;SDS011;29774;52.664;5.074;2024-01-10T12:29:21;8.10;;;5.68;;
44110;SDS011;29774;52.664;5.074;2024-01-10T12:31:47;5.82;;;4.32;;
44110;SDS011;29774;52.664;5.074;2024-01-10T12:34:13;8.65;;;5.90;;
44110;SDS011;29774;52.664;5.074;2024-01-10T12:36:40;8.60;;;5.07;;
44110;SDS011;29774;52.664;5.074;2024-01-10T12:39:06;8.63;;;5.85;;
44110;SDS011;29774;52.664;5.074;2024-01-10T12:41:32;11.32;;;5.55;;
44110;SDS011;29774;52.664;5.074;2024-01-10T12:43:59;8.50;;;5.75;;
44110;SDS011;29774;52.664;5.074;2024-01-10T12:46:28;10.00;;;5.80;;
44110;SDS011;29774;52.664;5.074;2024-01-10T12:49:04;7.20;;;5.40;;
44110;SDS011;29774;52.664;5.074;2024-01-10T12:51:32;7.20;;;5.35;;
44110;SDS011;29774;52.664;5.074;2024-01-10T12:53:59;8.60;;;5.70;;
44110;SDS011;29774;52.664;5.074;2024-01-10T12:56:26;9.48;;;6.45;;
44110;SDS011;29774;52.664;5.074;2024-01-10T12:58:52;9.70;;;5.90;;
44110;SDS011;29774;52.664;5.074;2024-01-10T13:01:20;10.55;;;6.28;;
44110;SDS011;29774;52.664;5.074;2024-01-10T13:03:46;8.63;;;5.45;;
44110;SDS011;29774;52.664;5.074;2024-01-10T13:06:13;9.23;;;5.63;;
44110;SDS011;29774;52.664;5.074;2024-01-10T13:08:39;9.00;;;5.57;;
44110;SDS011;29774;52.664;5.074;2024-01-10T13:11:05;8.82;;;5.65;;
44110;SDS011;29774;52.664;5.074;2024-01-10T13:13:37;8.43;;;5.78;;
44110;SDS011;29774;52.664;5.074;2024-01-10T13:16:03;7.85;;;5.53;;
44110;SDS011;29774;52.664;5.074;2024-01-10T13:18:29;9.23;;;5.57;;
44110;SDS011;29774;52.664;5.074;2024-01-10T13:20:55;10.82;;;5.65;;
44110;SDS011;29774;52.664;5.074;2024-01-10T13:23:22;8.05;;;5.18;;
44110;SDS011;29774;52.664;5.074;2024-01-10T13:25:48;6.45;;;4.88;;
44110;SDS011;29774;52.664;5.074;2024-01-10T13:28:14;9.38;;;5.22;;
44110;SDS011;29774;52.664;5.074;2024-01-10T13:30:40;9.05;;;5.43;;
44110;SDS011;29774;52.664;5.074;2024-01-10T13:33:08;8.20;;;5.30;;
44110;SDS011;29774;52.664;5.074;2024-01-10T13:35:34;7.95;;;5.20;;
44110;SDS011;29774;52.664;5.074;2024-01-10T13:38:00;9.30;;;5.85;;
44110;SDS011;29774;52.664;5.074;2024-01-10T13:40:26;11.50;;;5.63;;
44110;SDS011;29774;52.664;5.074;2024-01-10T13:42:52;7.90;;;5.47;;
44110;SDS011;29774;52.664;5.074;2024-01-10T13:45:18;8.88;;;5.00;;
44110;SDS011;29774;52.664;5.074;2024-01-10T13:47:44;7.28;;;5.03;;
44110;SDS011;29774;52.664;5.074;2024-01-10T13:50:09;8.98;;;5.72;;
44110;SDS011;29774;52.664;5.074;2024-01-10T13:52:35;7.53;;;5.78;;
44110;SDS011;29774;52.664;5.074;2024-01-10T13:55:01;12.23;;;6.53;;
44110;SDS011;29774;52.664;5.074;2024-01-10T13:57:29;9.07;;;5.97;;
44110;SDS011;29774;52.664;5.074;2024-01-10T13:59:55;7.88;;;5.03;;
44110;SDS011;29774;52.664;5.074;2024-01-10T14:02:22;8.93;;;5.45;;
44110;SDS011;29774;52.664;5.074;2024-01-10T14:04:48;9.32;;;5.72;;
44110;SDS011;29774;52.664;5.074;2024-01-10T14:07:13;9.73;;;5.70;;
44110;SDS011;29774;52.664;5.074;2024-01-10T14:09:39;9.27;;;5.95;;
44110;SDS011;29774;52.664;5.074;2024-01-10T14:12:05;9.75;;;5.68;;
44110;SDS011;29774;52.664;5.074;2024-01-10T14:14:31;7.90;;;5.22;;
44110;SDS011;29774;52.664;5.074;2024-01-10T14:16:57;11.10;;;5.70;;
44110;SDS011;29774;52.664;5.074;2024-01-10T14:19:23;9.48;;;5.50;;
44110;SDS011;29774;52.664;5.074;2024-01-10T14:21:48;8.48;;;5.35;;
44110;SDS011;29774;52.664;5.074;2024-01-10T14:24:14;9.20;;;5.50;;
44110;SDS011;29774;52.664;5.074;2024-01-10T14:26:41;9.57;;;5.90;;
44110;SDS011;29774;52.664;5.074;2024-01-10T14:29:06;9.85;;;5.70;;
44110;SDS011;29774;52.664;5.074;2024-01-10T14:31:32;9.73;;;6.22;;
44110;SDS011;29774;52.664;5.074;2024-01-10T14:33:58;7.28;;;5.90;;
44110;SDS011;29774;52.664;5.074;2024-01-10T14:36:23;10.15;;;5.72;;
44110;SDS011;29774;52.664;5.074;2024-01-10T14:38:49;7.35;;;5.32;;
44110;SDS011;29774;52.664;5.074;2024-01-10T14:41:15;10.48;;;5.75;;
44110;SDS011;29774;52.664;5.074;2024-01-10T14:43:41;9.40;;;5.63;;
44110;SDS011;29774;52.664;5.074;2024-01-10T14:46:07;9.38;;;5.43;;
44110;SDS011;29774;52.664;5.074;2024-01-10T14:48:33;9.15;;;5.72;;
44110;SDS011;29774;52.664;5.074;2024-01-10T14:50:59;8.35;;;4.57;;
44110;SDS011;29774;52.664;5.074;2024-01-10T14:53:29;7.53;;;5.18;;
44110;SDS011;29774;52.664;5.074;2024-01-10T14:55:55;9.05;;;5.93;;